Time;durP1;ratioP1;P1;durP2;ratioP2;P2;SDS_P1;SDS_P2;PMS_P1;PMS_P2;Temp;Humidity;BMP_temperature;BMP_pressure;BME280_temperature;BME280_humidity;BME280_pressure;Samples;Min_cycle;Max_cycle;Signal;HPM_P1;HPM_P2
2021/07/10 00:01:18;;;;;;;0.20;0.20;;;;;;;19.59;86.56;100469.63;5090025;28;20048;-71
2021/07/10 00:03:44;;;;;;;1.00;1.00;;;;;;;19.57;86.54;100460.03;5088575;28;20021;-72
2021/07/10 00:06:09;;;;;;;0.20;0.20;;;;;;;19.54;86.63;100451.41;5089772;28;20024;-72
2021/07/10 00:08:35;;;;;;;0.50;0.50;;;;;;;19.55;86.29;100445.22;5090033;28;20024;-72
2021/07/10 00:11:01;;;;;;;0.47;0.45;;;;;;;19.52;86.38;100442.75;5089950;28;20024;-71
2021/07/10 00:13:26;;;;;;;0.43;0.43;;;;;;;19.50;86.05;100436.69;5089760;28;20024;-72
2021/07/10 00:15:51;;;;;;;0.20;0.20;;;;;;;19.51;85.83;100436.63;5089759;28;20036;-70
2021/07/10 00:18:17;;;;;;;0.10;0.10;;;;;;;19.44;85.58;100432.56;5089631;28;20032;-71
2021/07/10 00:20:43;;;;;;;1.48;1.45;;;;;;;19.49;85.65;100425.28;5089665;28;20087;-71
2021/07/10 00:23:09;;;;;;;0.20;0.20;;;;;;;19.47;85.63;100415.75;5089573;28;20382;-71
2021/07/10 00:25:35;;;;;;;0.40;0.40;;;;;;;19.47;85.38;100416.63;5089650;28;20048;-70
2021/07/10 00:28:00;;;;;;;0.38;0.38;;;;;;;19.45;85.72;100407.94;5089841;28;20048;-71
2021/07/10 00:30:27;;;;;;;0.10;0.10;;;;;;;19.42;85.68;100398.41;5088454;28;20096;-72
2021/07/10 00:32:52;;;;;;;0.22;0.22;;;;;;;19.45;85.36;100389.50;5089619;28;20026;-71
2021/07/10 00:35:18;;;;;;;0.20;0.20;;;;;;;19.43;85.46;100373.78;5089268;28;20080;-71
2021/07/10 00:37:44;;;;;;;2.53;0.63;;;;;;;19.39;85.11;100371.38;5089682;28;20085;-71
2021/07/10 00:40:11;;;;;;;0.73;0.73;;;;;;;19.32;84.75;100369.03;5089736;28;20028;-70
2021/07/10 00:42:38;;;;;;;0.10;0.10;;;;;;;19.30;84.72;100362.09;5089495;28;20029;-70
2021/07/10 00:45:06;;;;;;;1.23;1.23;;;;;;;19.29;85.00;100363.03;5089679;28;20476;-71
2021/07/10 00:47:31;;;;;;;0.95;0.95;;;;;;;19.28;84.92;100361.34;5089349;28;20039;-71
2021/07/10 00:49:56;;;;;;;0.75;0.75;;;;;;;19.25;84.89;100357.06;5089479;28;20048;-71
2021/07/10 00:52:22;;;;;;;0.17;0.17;;;;;;;19.23;85.14;100361.56;5089296;28;20052;-71
2021/07/10 00:54:48;;;;;;;0.20;0.20;;;;;;;19.23;85.15;100352.78;5089317;28;20020;-71
2021/07/10 00:57:14;;;;;;;0.30;0.30;;;;;;;19.21;85.55;100352.88;5089378;28;20027;-71
2021/07/10 00:59:41;;;;;;;1.85;1.75;;;;;;;19.18;85.20;100345.13;5087639;28;20017;-71
2021/07/10 01:02:07;;;;;;;0.20;0.20;;;;;;;19.17;85.24;100343.41;5086295;28;20099;-71
2021/07/10 01:04:32;;;;;;;0.20;0.20;;;;;;;19.20;84.92;100348.53;5086225;28;20547;-71
2021/07/10 01:06:58;;;;;;;0.10;0.10;;;;;;;19.17;84.88;100340.78;5085962;28;20035;-71
2021/07/10 01:09:23;;;;;;;0.63;0.63;;;;;;;19.19;85.06;100355.56;5086042;28;20024;-70
2021/07/10 01:11:50;;;;;;;1.38;1.27;;;;;;;19.16;84.96;100350.44;5085917;28;20020;-71
2021/07/10 01:14:15;;;;;;;0.52;0.52;;;;;;;19.17;85.20;100343.41;5086173;28;20103;-71
2021/07/10 01:16:40;;;;;;;0.30;0.30;;;;;;;19.21;85.45;100342.34;5085910;28;20032;-71
2021/07/10 01:19:06;;;;;;;0.20;0.20;;;;;;;19.23;85.59;100335.22;5085951;28;20029;-71
2021/07/10 01:21:31;;;;;;;0.10;0.10;;;;;;;19.27;85.05;100331.53;5086133;28;20074;-71
2021/07/10 01:23:57;;;;;;;0.30;0.30;;;;;;;19.23;84.47;100318.59;5085494;28;20020;-71
2021/07/10 01:26:22;;;;;;;0.20;0.20;;;;;;;19.20;84.67;100311.69;5085734;28;20031;-71
2021/07/10 01:28:47;;;;;;;0.20;0.20;;;;;;;19.18;84.47;100310.91;5086149;28;20088;-70
2021/07/10 01:31:14;;;;;;;0.20;0.20;;;;;;;19.16;83.88;100297.81;5085929;28;20029;-72
2021/07/10 01:33:39;;;;;;;1.17;0.93;;;;;;;19.17;83.74;100293.41;5085651;28;20016;-71
2021/07/10 01:36:05;;;;;;;0.20;0.20;;;;;;;19.16;83.18;100281.16;5085494;28;20025;-69
2021/07/10 01:38:31;;;;;;;0.10;0.10;;;;;;;19.16;82.88;100283.81;5085805;28;20021;-71
2021/07/10 01:40:57;;;;;;;10.90;1.75;;;;;;;19.13;82.64;100278.69;5085493;28;20108;-72
2021/07/10 01:43:22;;;;;;;0.20;0.20;;;;;;;19.10;82.51;100255.16;5085420;28;20050;-69
2021/07/10 01:45:48;;;;;;;0.10;0.10;;;;;;;19.14;82.32;100262.81;5085283;28;20095;-69
2021/07/10 01:48:13;;;;;;;0.20;0.20;;;;;;;19.12;81.92;100263.81;5085588;28;20088;-70
2021/07/10 01:50:43;;;;;;;0.10;0.10;;;;;;;19.12;81.92;100267.28;5085033;28;20021;-70
2021/07/10 01:53:12;;;;;;;0.20;0.20;;;;;;;19.08;81.17;100263.94;5085311;28;20040;-69
2021/07/10 01:55:38;;;;;;;0.20;0.20;;;;;;;19.10;81.72;100269.16;5085118;28;20020;-69
2021/07/10 01:58:04;;;;;;;0.20;0.20;;;;;;;19.06;80.78;100273.66;5085669;28;20016;-69
2021/07/10 02:00:49;;;;;;;0.20;0.20;;;;;;;19.06;81.52;100278.06;5085062;28;20029;-70
2021/07/10 02:03:15;;;;;;;1.25;0.75;;;;;;;19.07;82.28;100282.44;5084732;28;20036;-70
2021/07/10 02:05:41;;;;;;;0.20;0.20;;;;;;;19.10;82.38;100282.31;5084856;28;20059;-70
2021/07/10 02:08:08;;;;;;;0.20;0.20;;;;;;;19.13;82.88;100279.53;5085069;28;20040;-70
2021/07/10 02:10:34;;;;;;;0.20;0.20;;;;;;;19.14;82.41;100281.25;5084940;28;20028;-69
2021/07/10 02:13:05;;;;;;;0.20;0.20;;;;;;;19.13;82.51;100273.41;5084918;28;20058;-70
2021/07/10 02:15:31;;;;;;;0.30;0.30;;;;;;;19.12;82.50;100272.56;5084618;28;20028;-70
2021/07/10 02:17:57;;;;;;;0.20;0.20;;;;;;;19.10;82.81;100260.41;5083463;28;20031;-70
2021/07/10 02:20:24;;;;;;;0.20;0.20;;;;;;;19.13;82.77;100263.75;5084724;28;20440;-71
2021/07/10 02:22:50;;;;;;;0.57;0.57;;;;;;;19.08;82.50;100263.06;5084256;28;20423;-69
2021/07/10 02:25:18;;;;;;;0.40;0.40;;;;;;;19.06;82.36;100255.25;5084828;28;20021;-70
2021/07/10 02:27:43;;;;;;;1.75;1.08;;;;;;;19.08;82.45;100257.81;5084640;28;20035;-70
2021/07/10 02:30:16;;;;;;;0.20;0.20;;;;;;;19.06;82.33;100259.66;5084630;28;20048;-70
2021/07/10 02:32:42;;;;;;;0.20;0.20;;;;;;;19.07;82.70;100270.09;5084500;28;20088;-70
2021/07/10 02:35:10;;;;;;;0.10;0.10;;;;;;;19.07;82.17;100262.22;5084305;28;20032;-70
2021/07/10 02:37:37;;;;;;;0.20;0.20;;;;;;;19.03;82.95;100251.91;5084208;28;20099;-70
2021/07/10 02:40:05;;;;;;;1.58;0.65;;;;;;;19.00;82.72;100245.03;5084654;28;20021;-69
2021/07/10 02:42:31;;;;;;;0.20;0.20;;;;;;;18.99;83.01;100251.22;5084360;28;20021;-69
2021/07/10 02:44:56;;;;;;;0.20;0.20;;;;;;;19.01;83.16;100254.63;5084184;28;20427;-69
2021/07/10 02:47:21;;;;;;;0.20;0.20;;;;;;;18.91;82.89;100246.28;5084175;28;20103;-69
2021/07/10 02:49:50;;;;;;;0.20;0.20;;;;;;;18.87;83.12;100249.13;5084221;28;20024;-70
2021/07/10 02:52:15;;;;;;;0.20;0.20;;;;;;;18.80;83.31;100246.78;5083839;28;20106;-70
2021/07/10 02:54:40;;;;;;;1.50;1.42;;;;;;;18.70;82.95;100224.47;5082740;28;20024;-71
2021/07/10 02:57:06;;;;;;;0.30;0.30;;;;;;;18.65;82.86;100215.94;5083956;28;20095;-70
2021/07/10 02:59:31;;;;;;;0.28;0.28;;;;;;;18.60;83.36;100210.03;5083961;28;20088;-70
2021/07/10 03:01:57;;;;;;;0.20;0.20;;;;;;;18.58;83.69;100205.69;5083832;28;20025;-70
2021/07/10 03:04:23;;;;;;;0.35;0.35;;;;;;;18.55;83.55;100203.22;5083852;28;20490;-69
2021/07/10 03:06:48;;;;;;;0.40;0.40;;;;;;;18.50;83.27;100207.00;5083775;28;20043;-69
2021/07/10 03:09:13;;;;;;;0.20;0.20;;;;;;;18.44;83.46;100208.97;5083783;28;20028;-69
2021/07/10 03:11:39;;;;;;;0.20;0.20;;;;;;;18.40;83.71;100201.28;5083633;28;20035;-70
2021/07/10 03:14:04;;;;;;;0.15;0.15;;;;;;;18.29;84.11;100197.34;5083851;28;20047;-71
2021/07/10 03:16:30;;;;;;;0.20;0.20;;;;;;;18.23;84.09;100197.63;5083834;28;20043;-70
2021/07/10 03:18:55;;;;;;;0.20;0.20;;;;;;;18.19;84.21;100196.91;5083908;28;20024;-69
2021/07/10 03:21:24;;;;;;;0.17;0.17;;;;;;;18.13;84.26;100199.78;5083570;28;20074;-69
2021/07/10 03:23:49;;;;;;;0.15;0.15;;;;;;;18.03;84.52;100201.09;5083110;28;20092;-68
2021/07/10 03:26:14;;;;;;;1.02;1.02;;;;;;;17.96;84.72;100192.59;5083551;28;20032;-69
2021/07/10 03:28:40;;;;;;;2.30;1.95;;;;;;;17.88;84.57;100189.44;5083712;28;20030;-69
2021/07/10 03:31:07;;;;;;;0.20;0.20;;;;;;;17.77;85.15;100189.91;5083890;28;20029;-69
2021/07/10 03:33:36;;;;;;;0.60;0.60;;;;;;;17.66;85.47;100187.75;5083355;28;20021;-69
2021/07/10 03:36:02;;;;;;;0.40;0.40;;;;;;;17.61;85.55;100190.56;5083442;28;20032;-67
2021/07/10 03:38:28;;;;;;;0.20;0.20;;;;;;;17.54;85.57;100182.09;5083464;28;20021;-68
2021/07/10 03:40:53;;;;;;;0.30;0.30;;;;;;;17.49;85.54;100175.31;5083531;28;20052;-68
2021/07/10 03:43:19;;;;;;;1.00;1.00;;;;;;;17.42;85.76;100169.47;5083450;28;20036;-70
2021/07/10 03:45:44;;;;;;;0.75;0.75;;;;;;;17.28;86.08;100167.41;5083539;28;20025;-70
2021/07/10 03:48:10;;;;;;;0.30;0.30;;;;;;;17.17;86.37;100166.06;5083653;28;20019;-64
2021/07/10 03:50:35;;;;;;;0.20;0.20;;;;;;;17.02;86.33;100166.66;5083349;28;20024;-63
2021/07/10 03:53:02;;;;;;;0.20;0.20;;;;;;;16.82;86.58;100168.28;5083252;28;20459;-64
2021/07/10 03:55:28;;;;;;;0.20;0.20;;;;;;;16.64;86.68;100159.34;5083515;28;20032;-64
2021/07/10 03:57:53;;;;;;;0.20;0.20;;;;;;;16.46;87.14;100156.50;5083046;28;20032;-64
2021/07/10 04:00:21;;;;;;;0.20;0.20;;;;;;;16.29;87.37;100157.13;5083482;28;20020;-63
2021/07/10 04:02:47;;;;;;;0.35;0.35;;;;;;;16.18;88.07;100150.50;5083256;28;20024;-63
2021/07/10 04:05:12;;;;;;;1.20;0.82;;;;;;;16.15;88.25;100147.16;5083211;28;20024;-62
2021/07/10 04:07:38;;;;;;;0.20;0.20;;;;;;;16.07;88.45;100127.31;5082858;28;20020;-62
2021/07/10 04:10:06;;;;;;;0.20;0.20;;;;;;;15.99;88.57;100126.75;5083520;28;20024;-62
2021/07/10 04:12:32;;;;;;;0.20;0.20;;;;;;;15.92;88.81;100125.22;5083106;28;20013;-62
2021/07/10 04:15:00;;;;;;;0.52;0.52;;;;;;;15.91;88.79;100120.91;5083120;28;20032;-62
2021/07/10 04:17:30;;;;;;;0.20;0.20;;;;;;;15.82;89.16;100125.56;5082915;28;20017;-62
2021/07/10 04:19:56;;;;;;;0.20;0.20;;;;;;;15.71;89.46;100119.84;5082902;28;20032;-63
2021/07/10 04:22:22;;;;;;;0.20;0.20;;;;;;;15.64;89.34;100127.03;5081842;28;20024;-63
2021/07/10 04:24:47;;;;;;;1.05;1.05;;;;;;;15.60;89.86;100099.28;5083152;28;20020;-63
2021/07/10 04:27:13;;;;;;;0.20;0.20;;;;;;;15.58;90.09;100115.03;5082849;28;20021;-63
2021/07/10 04:29:38;;;;;;;0.30;0.30;;;;;;;15.52;90.52;100094.31;5082838;28;20211;-61
2021/07/10 04:32:04;;;;;;;0.20;0.20;;;;;;;15.53;90.67;100108.25;5082903;28;20044;-62
2021/07/10 04:34:29;;;;;;;0.20;0.20;;;;;;;15.56;91.22;100097.69;5082814;28;20420;-62
2021/07/10 04:36:54;;;;;;;0.20;0.20;;;;;;;15.58;90.85;100086.25;5086384;28;20032;-61
2021/07/10 04:39:23;;;;;;;1.42;1.27;;;;;;;15.54;90.95;100096.88;5086637;28;20031;-62
2021/07/10 04:41:50;;;;;;;0.65;0.65;;;;;;;15.48;91.37;100088.31;5086377;28;20023;-62
2021/07/10 04:44:16;;;;;;;0.20;0.20;;;;;;;15.51;91.44;100087.34;5086468;28;20017;-61
2021/07/10 04:46:41;;;;;;;0.60;0.60;;;;;;;15.48;91.52;100085.72;5086423;28;20020;-62
2021/07/10 04:49:07;;;;;;;0.20;0.20;;;;;;;15.47;91.83;100078.78;5086584;28;20367;-63
2021/07/10 04:51:32;;;;;;;0.20;0.20;;;;;;;15.46;91.84;100089.28;5086380;28;20144;-63
2021/07/10 04:53:57;;;;;;;0.20;0.20;;;;;;;15.49;91.98;100068.25;5086258;28;20029;-62
2021/07/10 04:56:23;;;;;;;0.30;0.30;;;;;;;15.49;92.00;100070.88;5086124;28;20033;-62
2021/07/10 04:58:48;;;;;;;0.20;0.20;;;;;;;15.48;91.87;100074.38;5086247;28;20025;-61
2021/07/10 05:01:13;;;;;;;0.20;0.20;;;;;;;15.50;92.21;100080.41;5086316;28;20024;-61
2021/07/10 05:03:42;;;;;;;0.50;0.50;;;;;;;15.51;92.30;100078.66;5085732;28;20380;-64
2021/07/10 05:06:10;;;;;;;0.50;0.50;;;;;;;15.51;92.24;100065.59;5086008;28;20028;-62
2021/07/10 05:08:36;;;;;;;0.20;0.20;;;;;;;15.51;92.59;100079.50;5085966;28;20516;-62
2021/07/10 05:11:02;;;;;;;0.47;0.47;;;;;;;15.55;92.49;100073.28;5085862;28;20061;-64
2021/07/10 05:13:27;;;;;;;0.20;0.20;;;;;;;15.54;92.72;100073.31;5086022;28;20051;-63
2021/07/10 05:15:53;;;;;;;0.40;0.40;;;;;;;15.57;92.73;100073.22;5085544;28;20021;-63
2021/07/10 05:18:19;;;;;;;0.57;0.57;;;;;;;15.58;92.72;100073.16;5086160;28;20032;-62
2021/07/10 05:20:46;;;;;;;0.20;0.20;;;;;;;15.62;92.83;100066.06;5085855;28;20021;-62
2021/07/10 05:23:11;;;;;;;0.20;0.20;;;;;;;15.67;92.94;100066.75;5084418;28;20047;-62
2021/07/10 05:25:36;;;;;;;0.20;0.20;;;;;;;15.77;92.82;100063.81;5085600;28;20032;-63
2021/07/10 05:28:02;;;;;;;1.75;1.65;;;;;;;15.77;92.67;100063.81;5085479;28;20024;-61
2021/07/10 05:30:27;;;;;;;0.20;0.20;;;;;;;15.78;92.88;100052.44;5085518;28;20078;-62
2021/07/10 05:32:53;;;;;;;0.30;0.30;;;;;;;15.81;93.09;100055.81;5085750;28;20028;-63
2021/07/10 05:35:21;;;;;;;0.20;0.20;;;;;;;15.88;92.82;100047.72;5085726;28;20078;-62
2021/07/10 05:37:47;;;;;;;0.73;0.73;;;;;;;15.92;93.19;100049.31;5085361;28;20081;-64
2021/07/10 05:40:12;;;;;;;0.75;0.73;;;;;;;15.92;93.00;100049.31;5085551;28;20059;-64
2021/07/10 05:42:38;;;;;;;0.20;0.20;;;;;;;15.96;92.98;100033.44;5085641;28;20051;-66
2021/07/10 05:45:04;;;;;;;0.20;0.20;;;;;;;16.01;93.29;100028.06;5085299;28;20522;-68
2021/07/10 05:47:29;;;;;;;0.20;0.20;;;;;;;16.05;93.46;100023.56;5084924;28;20029;-68
2021/07/10 05:49:55;;;;;;;0.28;0.28;;;;;;;16.05;93.17;100032.28;5085345;28;20104;-67
2021/07/10 05:52:20;;;;;;;0.20;0.20;;;;;;;16.06;92.96;100023.50;5083774;28;20116;-65
2021/07/10 05:54:45;;;;;;;0.20;0.20;;;;;;;15.91;92.97;100008.34;5085162;28;20027;-68
2021/07/10 05:57:10;;;;;;;0.20;0.20;;;;;;;16.03;93.27;100022.75;5085050;28;20035;-67
2021/07/10 05:59:36;;;;;;;0.20;0.20;;;;;;;16.00;93.46;100013.28;5085180;28;20035;-67
2021/07/10 06:02:06;;;;;;;0.73;0.73;;;;;;;16.03;93.36;100021.00;5084876;28;20024;-67
2021/07/10 06:04:32;;;;;;;0.70;0.70;;;;;;;16.03;93.22;100014.91;5084938;28;20479;-66
2021/07/10 06:06:58;;;;;;;0.20;0.20;;;;;;;16.03;93.41;100022.75;5084545;28;20436;-65
2021/07/10 06:09:23;;;;;;;0.20;0.20;;;;;;;16.02;93.39;100024.56;5084743;28;20024;-67
2021/07/10 06:11:48;;;;;;;0.20;0.20;;;;;;;15.99;93.53;100029.88;5085154;28;20236;-67
2021/07/10 06:14:14;;;;;;;0.30;0.30;;;;;;;15.98;93.45;100026.41;5084930;28;20032;-67
2021/07/10 06:16:39;;;;;;;0.20;0.20;;;;;;;16.01;93.76;100028.06;5084921;28;20046;-67
2021/07/10 06:19:05;;;;;;;0.20;0.20;;;;;;;16.04;93.39;100021.88;5083908;28;20048;-67
2021/07/10 06:21:31;;;;;;;0.30;0.30;;;;;;;16.02;93.57;100019.31;5085010;28;20031;-67
2021/07/10 06:23:56;;;;;;;0.20;0.20;;;;;;;15.99;93.76;100006.31;5084639;28;20450;-67
2021/07/10 06:26:22;;;;;;;0.30;0.30;;;;;;;16.04;93.85;100017.47;5084669;28;20086;-67
2021/07/10 06:28:50;;;;;;;0.20;0.20;;;;;;;16.02;93.83;100007.97;5084729;28;20028;-66
2021/07/10 06:31:16;;;;;;;0.20;0.20;;;;;;;16.03;94.09;100020.16;5084664;28;20492;-66
2021/07/10 06:33:42;;;;;;;0.20;0.20;;;;;;;16.05;94.17;100015.72;5083119;28;20048;-67
2021/07/10 06:36:07;;;;;;;0.20;0.20;;;;;;;16.06;94.25;100015.66;5084462;28;20017;-67
2021/07/10 06:38:32;;;;;;;0.57;0.57;;;;;;;16.12;94.25;100025.03;5084591;28;20480;-67
2021/07/10 06:41:01;;;;;;;0.20;0.20;;;;;;;16.22;94.47;100017.69;5084385;28;20027;-67
2021/07/10 06:43:26;;;;;;;0.50;0.50;;;;;;;16.28;94.22;100009.59;5084636;28;20431;-66
2021/07/10 06:45:51;;;;;;;0.20;0.20;;;;;;;16.32;93.97;100016.44;5084266;28;20032;-66
2021/07/10 06:48:17;;;;;;;0.20;0.20;;;;;;;16.30;94.12;100013.00;5084098;28;20081;-66
2021/07/10 06:50:42;;;;;;;0.52;0.52;;;;;;;16.26;94.00;100005.34;5084082;28;20504;-66
2021/07/10 06:53:08;;;;;;;0.20;0.20;;;;;;;16.29;93.63;100008.69;5084233;28;20017;-65
2021/07/10 06:55:33;;;;;;;0.22;0.22;;;;;;;16.26;94.09;100000.09;5084138;28;20066;-65
2021/07/10 06:57:58;;;;;;;0.20;0.20;;;;;;;16.24;93.54;99997.53;5083291;28;20407;-65
2021/07/10 07:00:24;;;;;;;0.20;0.20;;;;;;;16.18;93.76;99995.16;5084016;28;20096;-66
2021/07/10 07:02:49;;;;;;;1.52;1.42;;;;;;;16.16;94.21;100003.06;5083934;28;20056;-66
2021/07/10 07:05:15;;;;;;;0.20;0.20;;;;;;;16.18;93.97;99993.38;5083930;28;20103;-66
2021/07/10 07:07:40;;;;;;;0.20;0.20;;;;;;;16.16;93.88;99995.22;5083766;28;20024;-66
2021/07/10 07:10:08;;;;;;;0.20;0.20;;;;;;;16.10;93.93;100000.69;5083783;28;20381;-66
2021/07/10 07:12:34;;;;;;;0.20;0.20;;;;;;;16.08;94.17;99982.44;5083844;28;20040;-66
2021/07/10 07:14:59;;;;;;;0.20;0.20;;;;;;;16.13;94.21;99986.63;5083908;28;20028;-66
2021/07/10 07:17:24;;;;;;;0.30;0.30;;;;;;;16.17;94.05;99993.44;5082386;28;20020;-65
2021/07/10 07:19:50;;;;;;;0.20;0.20;;;;;;;16.13;94.24;99984.00;5083710;28;20428;-66
2021/07/10 07:22:15;;;;;;;0.20;0.20;;;;;;;16.17;94.16;99977.72;5083562;28;20029;-66
2021/07/10 07:24:41;;;;;;;0.20;0.20;;;;;;;16.18;94.30;99982.06;5082512;28;20070;-64
2021/07/10 07:27:09;;;;;;;0.30;0.30;;;;;;;16.20;94.01;99964.50;5083507;28;20405;-66
2021/07/10 07:29:36;;;;;;;0.20;0.20;;;;;;;16.20;94.11;99981.09;5083625;28;20032;-65
2021/07/10 07:32:03;;;;;;;0.20;0.20;;;;;;;16.22;94.20;99983.63;5083763;28;20025;-65
2021/07/10 07:34:28;;;;;;;0.20;0.20;;;;;;;16.28;94.15;99980.78;5082258;28;20076;-65
2021/07/10 07:36:53;;;;;;;0.20;0.20;;;;;;;16.28;94.33;99982.56;5083511;28;20016;-66
2021/07/10 07:39:19;;;;;;;0.30;0.30;;;;;;;16.33;94.35;99981.47;5083504;28;20035;-66
2021/07/10 07:41:44;;;;;;;0.30;0.30;;;;;;;16.32;94.46;99979.75;5083520;28;20028;-65
2021/07/10 07:44:10;;;;;;;0.20;0.20;;;;;;;16.36;94.45;99972.63;5083237;28;20107;-66
2021/07/10 07:46:35;;;;;;;0.52;0.50;;;;;;;16.46;94.47;99973.97;5082195;28;20024;-66
2021/07/10 07:49:02;;;;;;;0.20;0.20;;;;;;;16.48;94.34;99960.81;5083542;28;20016;-66
2021/07/10 07:51:28;;;;;;;0.20;0.20;;;;;;;16.60;94.43;99962.06;5083139;28;20477;-66
2021/07/10 07:53:53;;;;;;;0.20;0.20;;;;;;;16.67;94.40;99952.19;5083376;28;20042;-66
2021/07/10 07:56:18;;;;;;;0.10;0.10;;;;;;;16.77;94.14;99953.53;5083397;28;20047;-67
2021/07/10 07:58:46;;;;;;;0.20;0.20;;;;;;;16.79;94.40;99950.84;5083598;28;20013;-68
2021/07/10 08:01:12;;;;;;;0.25;0.25;;;;;;;16.73;93.93;99949.31;5083364;28;20035;-67
2021/07/10 08:03:38;;;;;;;0.28;0.28;;;;;;;16.62;93.75;99962.00;5083402;28;20021;-67
2021/07/10 08:06:04;;;;;;;0.20;0.20;;;;;;;16.60;93.31;99959.44;5083060;28;20029;-67
2021/07/10 08:08:30;;;;;;;0.60;0.60;;;;;;;16.55;93.63;99957.00;5082890;28;20039;-66
2021/07/10 08:10:56;;;;;;;0.30;0.30;;;;;;;16.54;93.37;99957.06;5087205;28;20093;-67
2021/07/10 08:13:21;;;;;;;0.40;0.40;;;;;;;16.50;93.84;99964.22;5087538;28;20504;-68
2021/07/10 08:15:47;;;;;;;0.20;0.20;;;;;;;16.49;93.76;99962.50;5087176;28;20090;-64
2021/07/10 08:18:13;;;;;;;0.20;0.20;;;;;;;16.48;93.73;99958.19;5087298;28;20020;-66
2021/07/10 08:20:38;;;;;;;0.20;0.20;;;;;;;16.46;94.10;99952.16;5087049;28;20035;-66
2021/07/10 08:23:05;;;;;;;0.20;0.20;;;;;;;16.54;94.33;99951.84;5087281;28;20021;-66
2021/07/10 08:25:31;;;;;;;0.20;0.20;;;;;;;16.71;94.36;99945.88;5087084;28;20020;-67
2021/07/10 08:27:57;;;;;;;0.20;0.20;;;;;;;16.80;94.35;99934.19;5085549;28;20017;-67
2021/07/10 08:30:23;;;;;;;0.20;0.20;;;;;;;16.92;94.83;99938.03;5085398;28;20017;-66
2021/07/10 08:32:49;;;;;;;0.20;0.20;;;;;;;17.02;94.47;99946.38;5086732;28;20020;-66
2021/07/10 08:35:16;;;;;;;0.20;0.20;;;;;;;17.10;94.86;99939.06;5086570;28;20024;-66
2021/07/10 08:37:47;;;;;;;0.20;0.20;;;;;;;17.20;95.20;99950.84;5086527;28;20030;-67
2021/07/10 08:40:14;;;;;;;0.20;0.20;;;;;;;17.31;95.13;99947.78;5086837;28;20021;-67
2021/07/10 08:42:40;;;;;;;0.20;0.20;;;;;;;17.37;94.97;99941.41;5086641;28;20039;-67
2021/07/10 08:45:09;;;;;;;0.20;0.20;;;;;;;17.43;95.02;99948.13;5086745;28;20043;-66
2021/07/10 08:47:36;;;;;;;0.20;0.20;;;;;;;17.53;94.95;99938.06;5086527;28;20031;-66
2021/07/10 08:50:07;;;;;;;0.20;0.20;;;;;;;17.59;94.71;99930.78;5086680;28;20484;-66
2021/07/10 08:52:35;;;;;;;0.20;0.20;;;;;;;17.64;94.94;99917.44;5086206;28;20045;-66
2021/07/10 08:55:02;;;;;;;0.20;0.20;;;;;;;17.62;94.48;99915.81;5086265;28;20041;-66
2021/07/10 08:57:28;;;;;;;0.30;0.30;;;;;;;17.78;95.14;99919.44;5086178;28;20044;-66
2021/07/10 08:59:53;;;;;;;0.82;0.82;;;;;;;17.99;94.56;99908.00;5086397;28;20036;-65
2021/07/10 09:02:18;;;;;;;0.20;0.20;;;;;;;18.19;94.72;99907.06;5086466;28;20367;-66
2021/07/10 09:04:44;;;;;;;0.20;0.20;;;;;;;18.36;94.28;99908.88;5086337;28;20028;-65
2021/07/10 09:07:09;;;;;;;0.20;0.20;;;;;;;18.55;94.78;99895.66;5086098;28;20021;-65
2021/07/10 09:09:44;;;;;;;0.20;0.20;;;;;;;18.79;94.49;99897.97;5086160;28;20036;-65
2021/07/10 09:12:12;;;;;;;0.20;0.20;;;;;;;18.86;94.34;99901.16;5086231;28;20017;-66
2021/07/10 09:14:38;;;;;;;0.20;0.20;;;;;;;18.67;92.05;99911.75;5084700;28;20013;-67
2021/07/10 09:17:24;;;;;;;0.32;0.32;;;;;;;18.42;91.65;99905.06;5085913;28;20027;-68
2021/07/10 09:19:50;;;;;;;0.20;0.20;;;;;;;18.27;91.84;99904.06;5086244;28;20084;-67
2021/07/10 09:22:30;;;;;;;0.20;0.20;;;;;;;18.15;91.23;99903.72;5085006;28;20054;-67
2021/07/10 09:24:58;;;;;;;0.30;0.30;;;;;;;18.13;91.51;99896.88;5086031;28;20020;-67
2021/07/10 09:27:23;;;;;;;1.05;1.05;;;;;;;18.14;92.34;99893.31;5085490;28;20039;-68
2021/07/10 09:29:52;;;;;;;0.40;0.40;;;;;;;17.99;90.96;99889.63;5084426;28;20021;-68
2021/07/10 09:32:22;;;;;;;0.20;0.20;;;;;;;17.89;91.61;99894.47;5085808;28;20025;-68
2021/07/10 09:34:54;;;;;;;0.30;0.30;;;;;;;17.93;92.38;99894.22;5085817;28;20023;-69
2021/07/10 09:37:25;;;;;;;0.65;0.65;;;;;;;18.00;92.52;99881.66;5085533;28;20468;-70
2021/07/10 09:40:00;;;;;;;0.20;0.20;;;;;;;18.04;91.73;99877.97;5084307;28;20123;-71
2021/07/10 09:42:37;;;;;;;0.20;0.20;;;;;;;18.09;92.47;99886.47;5085559;28;20477;-70
2021/07/10 09:45:05;;;;;;;0.20;0.20;;;;;;;18.06;92.17;99880.50;5085752;28;20036;-71
2021/07/10 09:47:32;;;;;;;0.20;0.20;;;;;;;18.04;92.00;99888.47;5083985;28;20024;-71
2021/07/10 09:49:59;;;;;;;0.20;0.20;;;;;;;18.02;92.54;99890.31;5084248;28;20084;-71
2021/07/10 09:52:29;;;;;;;0.20;0.20;;;;;;;17.92;91.40;99878.56;5085240;28;20089;-71
2021/07/10 09:55:12;;;;;;;0.30;0.30;;;;;;;17.91;91.41;99871.56;5083958;28;20023;-72
2021/07/10 09:57:40;;;;;;;0.20;0.20;;;;;;;17.85;91.99;99867.47;5085196;28;20520;-71
2021/07/10 10:00:06;;;;;;;0.20;0.20;;;;;;;17.98;92.15;99869.53;5085056;28;20040;-72
2021/07/10 10:02:41;;;;;;;0.20;0.20;;;;;;;18.07;92.43;99862.06;5083247;28;20020;-71
2021/07/10 10:05:10;;;;;;;0.20;0.20;;;;;;;18.15;92.66;99863.47;5085232;28;20048;-70
2021/07/10 10:07:49;;;;;;;0.20;0.20;;;;;;;18.13;91.32;99860.91;5084917;28;20028;-71
2021/07/10 10:10:23;;;;;;;0.20;0.20;;;;;;;18.27;91.89;99868.16;5085305;28;20020;-72
2021/07/10 10:13:10;;;;;;;0.20;0.20;;;;;;;18.36;92.14;99865.97;5083747;28;20111;-74
2021/07/10 10:15:52;;;;;;;0.20;0.20;;;;;;;18.32;91.89;99868.75;5085170;28;20024;-74
2021/07/10 10:18:25;;;;;;;0.20;0.20;;;;;;;18.37;91.94;99872.94;5083172;28;20020;-72
2021/07/10 10:20:52;;;;;;;0.52;0.52;;;;;;;18.30;90.96;99868.00;5084414;28;20024;-70
2021/07/10 10:23:19;;;;;;;0.20;0.20;;;;;;;18.35;91.66;99875.66;5083269;28;20024;-70
2021/07/10 10:25:46;;;;;;;0.20;0.20;;;;;;;18.37;91.39;99872.94;5083249;28;20016;-69
2021/07/10 10:28:21;;;;;;;0.25;0.25;;;;;;;18.36;91.35;99881.72;5084692;28;20030;-69
2021/07/10 10:30:51;;;;;;;0.20;0.20;;;;;;;18.30;90.20;99873.25;5084700;28;20028;-68
2021/07/10 10:33:17;;;;;;;0.20;0.20;;;;;;;18.32;90.68;99881.06;5084637;28;20023;-67
2021/07/10 10:35:45;;;;;;;0.20;0.20;;;;;;;18.35;91.21;99880.03;5084588;28;20021;-67
2021/07/10 10:38:11;;;;;;;0.20;0.20;;;;;;;18.40;91.08;99878.03;5084446;28;20020;-67
2021/07/10 10:40:36;;;;;;;0.20;0.20;;;;;;;18.41;90.94;99875.34;5084494;28;20032;-66
2021/07/10 10:43:03;;;;;;;0.10;0.10;;;;;;;18.49;91.11;99877.56;5084593;28;20020;-66
2021/07/10 10:45:34;;;;;;;0.20;0.20;;;;;;;18.55;91.38;99879.91;5084491;28;20024;-66
2021/07/10 10:48:00;;;;;;;0.20;0.20;;;;;;;18.64;91.62;99886.44;5084185;28;20032;-67
2021/07/10 10:50:34;;;;;;;0.20;0.20;;;;;;;18.70;90.95;99890.56;5084350;28;20067;-67
2021/07/10 10:53:01;;;;;;;0.20;0.20;;;;;;;18.77;91.42;99886.69;5083932;28;20043;-66
2021/07/10 10:55:29;;;;;;;0.20;0.20;;;;;;;18.82;91.43;99889.94;5084308;28;20012;-67
2021/07/10 10:58:13;;;;;;;0.20;0.20;;;;;;;18.88;91.76;99886.13;5083971;28;20058;-66
2021/07/10 11:00:40;;;;;;;0.20;0.20;;;;;;;18.89;91.81;99892.25;5083748;28;20024;-66
2021/07/10 11:03:06;;;;;;;0.20;0.20;;;;;;;18.93;91.88;99892.00;5084233;28;20028;-67
2021/07/10 11:05:33;;;;;;;0.10;0.10;;;;;;;18.93;91.67;99893.81;5082630;28;20028;-67
2021/07/10 11:08:23;;;;;;;0.20;0.20;;;;;;;18.93;90.97;99894.63;5084117;28;20028;-67
2021/07/10 11:10:57;;;;;;;0.20;0.20;;;;;;;18.93;90.64;99891.16;5083889;28;20024;-65
2021/07/10 11:13:38;;;;;;;0.10;0.10;;;;;;;18.93;90.69;99894.63;5084051;28;20084;-66
2021/07/10 11:16:14;;;;;;;0.10;0.10;;;;;;;18.86;90.89;99895.03;5083873;28;20110;-67
2021/07/10 11:19:00;;;;;;;0.20;0.20;;;;;;;18.73;90.49;99893.03;5083618;28;20027;-66
2021/07/10 11:21:35;;;;;;;0.20;0.20;;;;;;;18.74;91.31;99896.53;5083846;28;20028;-65
2021/07/10 11:24:15;;;;;;;0.20;0.20;;;;;;;18.75;91.57;99895.59;5083645;28;20056;-66
2021/07/10 11:27:02;;;;;;;0.35;0.35;;;;;;;18.78;91.93;99901.53;5083555;28;20548;-67
2021/07/10 11:29:29;;;;;;;0.20;0.20;;;;;;;18.82;92.14;99900.44;5075950;28;20032;-67